CheckWX is a tool to help pilots better visualize weather data.  It is not intended as a substitute for an official pre-flight weather briefing.

01:35:04 UTC

DABT TAF
Batna Airport
Batna, Algeria
TAF DABT 232300Z 2400/2424 32014KT 8000 SCT020 PROB30 TEMPO 2400/2412 36015G25KT FEW015TCU

Feb-24@
00:00 UTC

Feb-24 @ 00:00 UTC

Feb-25@
00:00 UTC

Feb-25 @ 00:00 UTC

TAF DABT 232300Z 2400/2424 32014KT 8000 SCT020
Wind
  • 320° at 14 KTS
Cloud Levels
  • Scattered at 2,000' AGL

Feb-24@
00:00 UTC

Feb-24 @ 00:00 UTC

Feb-24@
12:00 UTC

Feb-24 @ 12:00 UTC

PROB30 TEMPO 2400/2412 36015G25KT FEW015TCU

Temporary - 30% Likelihood

Temporary - 30% Likelihood during this time.

Wind
  • 360° at 15 KTS
  • {Gusting to 25 KTS
Cloud Levels
  • Few at 1,500' AGL